sensor_id;sensor_type;location;lat;lon;timestamp;pressure;altitude;pressure_sealevel;temperature;humidity
53526;BME280;40551;50.478;19.378;2023-07-29T00:01:30;97395.88;;;15.38;87.25
53526;BME280;40551;50.478;19.378;2023-07-29T00:04:05;97397.08;;;15.35;87.28
53526;BME280;40551;50.478;19.378;2023-07-29T00:06:41;97397.20;;;15.32;87.27
53526;BME280;40551;50.478;19.378;2023-07-29T00:09:15;97397.52;;;15.29;87.11
53526;BME280;40551;50.478;19.378;2023-07-29T00:11:50;97394.85;;;15.27;87.30
53526;BME280;40551;50.478;19.378;2023-07-29T00:14:23;97390.19;;;15.25;87.19
53526;BME280;40551;50.478;19.378;2023-07-29T00:16:56;97383.72;;;15.22;87.16
53526;BME280;40551;50.478;19.378;2023-07-29T00:19:30;97390.56;;;15.19;87.06
53526;BME280;40551;50.478;19.378;2023-07-29T00:22:06;97383.38;;;15.16;87.21
53526;BME280;40551;50.478;19.378;2023-07-29T00:24:41;97383.77;;;15.13;87.11
53526;BME280;40551;50.478;19.378;2023-07-29T00:27:15;97383.39;;;15.09;87.12
53526;BME280;40551;50.478;19.378;2023-07-29T00:29:48;97386.61;;;15.09;87.58
53526;BME280;40551;50.478;19.378;2023-07-29T00:32:22;97383.14;;;15.07;87.39
53526;BME280;40551;50.478;19.378;2023-07-29T00:34:56;97377.73;;;15.06;87.22
53526;BME280;40551;50.478;19.378;2023-07-29T00:37:36;97374.72;;;15.04;87.45
53526;BME280;40551;50.478;19.378;2023-07-29T00:40:19;97371.17;;;15.02;87.36
53526;BME280;40551;50.478;19.378;2023-07-29T00:42:53;97371.36;;;14.99;87.23
53526;BME280;40551;50.478;19.378;2023-07-29T00:45:28;97375.74;;;14.94;87.12
53526;BME280;40551;50.478;19.378;2023-07-29T00:48:03;97372.77;;;14.93;87.25
53526;BME280;40551;50.478;19.378;2023-07-29T00:50:38;97367.94;;;14.91;87.21
53526;BME280;40551;50.478;19.378;2023-07-29T00:53:13;97366.08;;;14.88;87.26
53526;BME280;40551;50.478;19.378;2023-07-29T00:55:47;97365.45;;;14.84;87.24
53526;BME280;40551;50.478;19.378;2023-07-29T00:58:21;97368.34;;;14.81;87.02
53526;BME280;40551;50.478;19.378;2023-07-29T01:00:55;97363.77;;;14.78;87.04
53526;BME280;40551;50.478;19.378;2023-07-29T01:03:30;97363.61;;;14.76;87.21
53526;BME280;40551;50.478;19.378;2023-07-29T01:06:12;97362.70;;;14.75;87.25
53526;BME280;40551;50.478;19.378;2023-07-29T01:08:55;97368.48;;;14.73;87.56
53526;BME280;40551;50.478;19.378;2023-07-29T01:11:38;97367.36;;;14.72;87.52
53526;BME280;40551;50.478;19.378;2023-07-29T01:14:24;97370.13;;;14.71;87.36
53526;BME280;40551;50.478;19.378;2023-07-29T01:17:06;97372.27;;;14.69;87.49
53526;BME280;40551;50.478;19.378;2023-07-29T01:19:59;97373.91;;;14.65;87.19
53526;BME280;40551;50.478;19.378;2023-07-29T01:22:36;97375.08;;;14.63;87.53
53526;BME280;40551;50.478;19.378;2023-07-29T01:25:12;97375.61;;;14.61;87.73
53526;BME280;40551;50.478;19.378;2023-07-29T01:27:48;97375.41;;;14.61;87.89
53526;BME280;40551;50.478;19.378;2023-07-29T01:30:25;97370.15;;;14.61;87.91
53526;BME280;40551;50.478;19.378;2023-07-29T01:33:07;97371.39;;;14.61;88.11
53526;BME280;40551;50.478;19.378;2023-07-29T01:35:48;97370.61;;;14.62;88.26
53526;BME280;40551;50.478;19.378;2023-07-29T01:38:27;97371.42;;;14.63;88.24
53526;BME280;40551;50.478;19.378;2023-07-29T01:41:04;97371.27;;;14.64;88.38
53526;BME280;40551;50.478;19.378;2023-07-29T01:43:39;97376.94;;;14.64;88.48
53526;BME280;40551;50.478;19.378;2023-07-29T01:46:16;97380.92;;;14.67;88.62
53526;BME280;40551;50.478;19.378;2023-07-29T01:48:53;97384.84;;;14.67;88.61
53526;BME280;40551;50.478;19.378;2023-07-29T01:51:27;97385.31;;;14.68;88.61
53526;BME280;40551;50.478;19.378;2023-07-29T01:54:00;97384.34;;;14.71;88.90
53526;BME280;40551;50.478;19.378;2023-07-29T01:56:34;97383.20;;;14.74;88.92
53526;BME280;40551;50.478;19.378;2023-07-29T01:59:09;97382.44;;;14.77;88.85
53526;BME280;40551;50.478;19.378;2023-07-29T02:01:44;97385.48;;;14.77;89.12
53526;BME280;40551;50.478;19.378;2023-07-29T02:04:18;97384.39;;;14.78;88.96
53526;BME280;40551;50.478;19.378;2023-07-29T02:06:52;97387.98;;;14.78;88.96
53526;BME280;40551;50.478;19.378;2023-07-29T02:09:28;97384.62;;;14.79;89.25
53526;BME280;40551;50.478;19.378;2023-07-29T02:12:03;97388.02;;;14.80;89.28
53526;BME280;40551;50.478;19.378;2023-07-29T02:14:42;97388.79;;;14.80;89.45
53526;BME280;40551;50.478;19.378;2023-07-29T02:17:16;97392.10;;;14.80;89.31
53526;BME280;40551;50.478;19.378;2023-07-29T02:19:50;97394.48;;;14.81;89.15
53526;BME280;40551;50.478;19.378;2023-07-29T02:22:25;97395.50;;;14.81;89.31
53526;BME280;40551;50.478;19.378;2023-07-29T02:24:59;97394.20;;;14.83;89.41
53526;BME280;40551;50.478;19.378;2023-07-29T02:27:33;97393.52;;;14.83;89.53
53526;BME280;40551;50.478;19.378;2023-07-29T02:30:13;97397.84;;;14.84;89.45
53526;BME280;40551;50.478;19.378;2023-07-29T02:32:47;97398.27;;;14.85;89.65
53526;BME280;40551;50.478;19.378;2023-07-29T02:35:20;97396.23;;;14.84;89.61
53526;BME280;40551;50.478;19.378;2023-07-29T02:37:54;97402.48;;;14.84;89.62
53526;BME280;40551;50.478;19.378;2023-07-29T02:40:30;97401.70;;;14.85;89.68
53526;BME280;40551;50.478;19.378;2023-07-29T02:43:04;97398.52;;;14.87;90.02
53526;BME280;40551;50.478;19.378;2023-07-29T02:45:39;97396.56;;;14.89;89.97
53526;BME280;40551;50.478;19.378;2023-07-29T02:48:13;97397.71;;;14.90;89.72
53526;BME280;40551;50.478;19.378;2023-07-29T02:50:48;97398.77;;;14.90;89.58
53526;BME280;40551;50.478;19.378;2023-07-29T02:53:21;97390.90;;;14.90;89.60
53526;BME280;40551;50.478;19.378;2023-07-29T02:55:56;97397.61;;;14.89;89.68
53526;BME280;40551;50.478;19.378;2023-07-29T02:58:29;97397.23;;;14.88;89.53
53526;BME280;40551;50.478;19.378;2023-07-29T03:01:04;97393.70;;;14.86;89.44
53526;BME280;40551;50.478;19.378;2023-07-29T03:03:38;97392.67;;;14.86;89.62
53526;BME280;40551;50.478;19.378;2023-07-29T03:06:15;97396.59;;;14.85;89.59
53526;BME280;40551;50.478;19.378;2023-07-29T03:08:50;97397.36;;;14.82;89.29
53526;BME280;40551;50.478;19.378;2023-07-29T03:11:22;97406.61;;;14.79;89.11
53526;BME280;40551;50.478;19.378;2023-07-29T03:13:58;97407.14;;;14.77;89.16
53526;BME280;40551;50.478;19.378;2023-07-29T03:16:33;97408.45;;;14.76;89.45
53526;BME280;40551;50.478;19.378;2023-07-29T03:19:06;97407.42;;;14.76;89.44
53526;BME280;40551;50.478;19.378;2023-07-29T03:21:41;97413.27;;;14.77;89.36
53526;BME280;40551;50.478;19.378;2023-07-29T03:24:15;97414.39;;;14.76;89.33
53526;BME280;40551;50.478;19.378;2023-07-29T03:26:49;97416.02;;;14.76;89.35
53526;BME280;40551;50.478;19.378;2023-07-29T03:29:25;97416.48;;;14.75;89.27
53526;BME280;40551;50.478;19.378;2023-07-29T03:32:00;97417.31;;;14.74;89.22
53526;BME280;40551;50.478;19.378;2023-07-29T03:34:34;97416.65;;;14.73;89.14
53526;BME280;40551;50.478;19.378;2023-07-29T03:37:08;97415.55;;;14.72;89.14
53526;BME280;40551;50.478;19.378;2023-07-29T03:39:42;97412.81;;;14.72;89.27
53526;BME280;40551;50.478;19.378;2023-07-29T03:42:16;97413.43;;;14.71;89.03
53526;BME280;40551;50.478;19.378;2023-07-29T03:44:50;97413.17;;;14.70;89.26
53526;BME280;40551;50.478;19.378;2023-07-29T03:47:23;97417.76;;;14.71;89.22
53526;BME280;40551;50.478;19.378;2023-07-29T03:49:58;97414.13;;;14.72;89.35
53526;BME280;40551;50.478;19.378;2023-07-29T03:52:33;97414.46;;;14.74;89.57
53526;BME280;40551;50.478;19.378;2023-07-29T03:55:10;97414.61;;;14.76;89.48
53526;BME280;40551;50.478;19.378;2023-07-29T03:57:44;97416.38;;;14.76;89.41
53526;BME280;40551;50.478;19.378;2023-07-29T04:00:20;97420.76;;;14.77;89.63
53526;BME280;40551;50.478;19.378;2023-07-29T04:02:54;97413.39;;;14.79;89.78
53526;BME280;40551;50.478;19.378;2023-07-29T04:05:28;97417.70;;;14.81;89.63
53526;BME280;40551;50.478;19.378;2023-07-29T04:08:05;97414.67;;;14.78;89.71
53526;BME280;40551;50.478;19.378;2023-07-29T04:10:39;97424.52;;;14.82;89.68
53526;BME280;40551;50.478;19.378;2023-07-29T04:13:12;97422.73;;;14.84;89.75
53526;BME280;40551;50.478;19.378;2023-07-29T04:15:46;97422.08;;;14.85;89.83
53526;BME280;40551;50.478;19.378;2023-07-29T04:18:20;97423.25;;;14.89;89.89
53526;BME280;40551;50.478;19.378;2023-07-29T04:20:55;97419.23;;;14.92;90.13
53526;BME280;40551;50.478;19.378;2023-07-29T04:23:28;97417.52;;;14.95;90.01
53526;BME280;40551;50.478;19.378;2023-07-29T04:26:01;97420.36;;;14.99;90.25
53526;BME280;40551;50.478;19.378;2023-07-29T04:28:35;97425.21;;;15.04;90.33
53526;BME280;40551;50.478;19.378;2023-07-29T04:31:09;97431.48;;;15.07;90.32
53526;BME280;40551;50.478;19.378;2023-07-29T04:33:42;97432.44;;;15.12;90.35
53526;BME280;40551;50.478;19.378;2023-07-29T04:36:18;97427.46;;;15.17;90.41
53526;BME280;40551;50.478;19.378;2023-07-29T04:38:54;97429.44;;;15.24;90.63
53526;BME280;40551;50.478;19.378;2023-07-29T04:41:28;97428.98;;;15.33;90.71
53526;BME280;40551;50.478;19.378;2023-07-29T04:44:01;97424.61;;;15.42;91.04
53526;BME280;40551;50.478;19.378;2023-07-29T04:46:38;97429.05;;;15.57;90.98
53526;BME280;40551;50.478;19.378;2023-07-29T04:49:13;97432.60;;;15.70;91.25
53526;BME280;40551;50.478;19.378;2023-07-29T04:51:46;97436.09;;;15.84;91.34
53526;BME280;40551;50.478;19.378;2023-07-29T04:54:22;97434.15;;;16.00;91.48
53526;BME280;40551;50.478;19.378;2023-07-29T04:56:56;97436.42;;;16.18;91.61
53526;BME280;40551;50.478;19.378;2023-07-29T04:59:32;97443.85;;;16.38;91.65
53526;BME280;40551;50.478;19.378;2023-07-29T05:02:06;97444.73;;;16.57;91.98
53526;BME280;40551;50.478;19.378;2023-07-29T05:04:41;97441.35;;;16.77;91.57
53526;BME280;40551;50.478;19.378;2023-07-29T05:07:15;97447.19;;;16.98;91.93
53526;BME280;40551;50.478;19.378;2023-07-29T05:09:49;97443.08;;;17.20;92.03
53526;BME280;40551;50.478;19.378;2023-07-29T05:12:23;97442.91;;;17.41;91.37
53526;BME280;40551;50.478;19.378;2023-07-29T05:14:58;97445.40;;;17.62;91.62
53526;BME280;40551;50.478;19.378;2023-07-29T05:17:33;97450.55;;;17.84;91.50
53526;BME280;40551;50.478;19.378;2023-07-29T05:20:11;97453.85;;;18.04;91.26
53526;BME280;40551;50.478;19.378;2023-07-29T05:22:45;97452.29;;;18.25;91.26
53526;BME280;40551;50.478;19.378;2023-07-29T05:25:20;97455.19;;;18.45;90.98
53526;BME280;40551;50.478;19.378;2023-07-29T05:27:54;97455.56;;;18.65;91.15
53526;BME280;40551;50.478;19.378;2023-07-29T05:30:30;97455.36;;;18.86;91.00
53526;BME280;40551;50.478;19.378;2023-07-29T05:33:05;97452.84;;;19.09;91.03
53526;BME280;40551;50.478;19.378;2023-07-29T05:35:44;97452.34;;;19.29;90.89
53526;BME280;40551;50.478;19.378;2023-07-29T05:38:19;97453.30;;;19.49;90.06
53526;BME280;40551;50.478;19.378;2023-07-29T05:40:53;97456.23;;;19.68;89.99
53526;BME280;40551;50.478;19.378;2023-07-29T05:43:27;97455.58;;;19.78;89.36
53526;BME280;40551;50.478;19.378;2023-07-29T05:46:01;97457.08;;;19.92;89.21
53526;BME280;40551;50.478;19.378;2023-07-29T05:48:35;97457.23;;;20.08;89.33
53526;BME280;40551;50.478;19.378;2023-07-29T05:51:09;97455.81;;;20.29;89.43
53526;BME280;40551;50.478;19.378;2023-07-29T05:53:44;97457.03;;;20.49;88.92
53526;BME280;40551;50.478;19.378;2023-07-29T05:56:20;97458.90;;;20.66;88.42
53526;BME280;40551;50.478;19.378;2023-07-29T05:58:53;97455.74;;;20.83;87.98
53526;BME280;40551;50.478;19.378;2023-07-29T06:01:26;97456.81;;;20.98;87.69
53526;BME280;40551;50.478;19.378;2023-07-29T06:03:59;97455.17;;;21.14;87.29
53526;BME280;40551;50.478;19.378;2023-07-29T06:06:32;97464.00;;;21.30;87.28
53526;BME280;40551;50.478;19.378;2023-07-29T06:09:07;97465.86;;;21.49;86.89
53526;BME280;40551;50.478;19.378;2023-07-29T06:11:41;97468.14;;;21.67;86.66
53526;BME280;40551;50.478;19.378;2023-07-29T06:14:15;97466.67;;;21.81;86.27
53526;BME280;40551;50.478;19.378;2023-07-29T06:16:50;97470.78;;;21.93;85.76
53526;BME280;40551;50.478;19.378;2023-07-29T06:19:24;97475.94;;;21.99;84.82
53526;BME280;40551;50.478;19.378;2023-07-29T06:21:59;97474.20;;;22.08;84.80
53526;BME280;40551;50.478;19.378;2023-07-29T06:24:34;97481.75;;;22.20;84.62
53526;BME280;40551;50.478;19.378;2023-07-29T06:27:07;97481.09;;;22.35;84.08
53526;BME280;40551;50.478;19.378;2023-07-29T06:29:41;97479.20;;;22.46;83.51
53526;BME280;40551;50.478;19.378;2023-07-29T06:32:13;97479.00;;;22.59;83.23
53526;BME280;40551;50.478;19.378;2023-07-29T06:34:49;97479.21;;;22.74;82.75
53526;BME280;40551;50.478;19.378;2023-07-29T06:37:23;97480.42;;;22.91;83.12
53526;BME280;40551;50.478;19.378;2023-07-29T06:39:56;97482.27;;;23.03;82.53
53526;BME280;40551;50.478;19.378;2023-07-29T06:42:29;97485.76;;;23.14;81.58
53526;BME280;40551;50.478;19.378;2023-07-29T06:45:05;97483.22;;;23.27;81.22
53526;BME280;40551;50.478;19.378;2023-07-29T06:47:39;97481.08;;;23.40;80.79
53526;BME280;40551;50.478;19.378;2023-07-29T06:50:15;97484.66;;;23.46;80.38
53526;BME280;40551;50.478;19.378;2023-07-29T06:52:47;97481.66;;;23.42;80.19
53526;BME280;40551;50.478;19.378;2023-07-29T06:55:20;97482.73;;;23.47;80.48
53526;BME280;40551;50.478;19.378;2023-07-29T06:57:54;97480.88;;;23.49;80.43
53526;BME280;40551;50.478;19.378;2023-07-29T07:00:28;97481.19;;;23.52;80.04
53526;BME280;40551;50.478;19.378;2023-07-29T07:03:02;97478.91;;;23.48;79.95
53526;BME280;40551;50.478;19.378;2023-07-29T07:05:35;97477.88;;;23.44;79.51
53526;BME280;40551;50.478;19.378;2023-07-29T07:08:10;97475.02;;;23.44;78.36
53526;BME280;40551;50.478;19.378;2023-07-29T07:10:43;97469.56;;;23.45;78.30
53526;BME280;40551;50.478;19.378;2023-07-29T07:13:17;97471.46;;;23.49;78.15
53526;BME280;40551;50.478;19.378;2023-07-29T07:15:52;97469.97;;;23.59;77.73
53526;BME280;40551;50.478;19.378;2023-07-29T07:18:27;97471.39;;;23.71;78.29
53526;BME280;40551;50.478;19.378;2023-07-29T07:21:01;97473.48;;;23.87;78.08
53526;BME280;40551;50.478;19.378;2023-07-29T07:23:34;97473.42;;;23.98;77.96
53526;BME280;40551;50.478;19.378;2023-07-29T07:26:08;97474.11;;;24.06;77.00
53526;BME280;40551;50.478;19.378;2023-07-29T07:28:43;97482.26;;;24.12;76.31
53526;BME280;40551;50.478;19.378;2023-07-29T07:31:18;97478.73;;;24.24;76.53
53526;BME280;40551;50.478;19.378;2023-07-29T07:33:53;97480.04;;;24.34;75.45
53526;BME280;40551;50.478;19.378;2023-07-29T07:36:28;97478.80;;;24.39;74.58
53526;BME280;40551;50.478;19.378;2023-07-29T07:39:02;97478.44;;;24.47;73.85
53526;BME280;40551;50.478;19.378;2023-07-29T07:41:34;97483.67;;;24.51;73.27
53526;BME280;40551;50.478;19.378;2023-07-29T07:44:08;97484.52;;;24.54;73.84
53526;BME280;40551;50.478;19.378;2023-07-29T07:46:41;97479.41;;;24.58;73.70
53526;BME280;40551;50.478;19.378;2023-07-29T07:49:16;97480.48;;;24.62;72.79
53526;BME280;40551;50.478;19.378;2023-07-29T07:51:49;97475.16;;;24.69;72.36
53526;BME280;40551;50.478;19.378;2023-07-29T07:54:23;97478.60;;;24.76;72.68
53526;BME280;40551;50.478;19.378;2023-07-29T07:56:57;97471.32;;;24.84;72.16
53526;BME280;40551;50.478;19.378;2023-07-29T07:59:30;97476.48;;;24.92;72.16
53526;BME280;40551;50.478;19.378;2023-07-29T08:02:06;97476.80;;;24.98;71.71
53526;BME280;40551;50.478;19.378;2023-07-29T08:04:39;97475.52;;;24.97;71.12
53526;BME280;40551;50.478;19.378;2023-07-29T08:07:12;97477.65;;;24.98;71.15
53526;BME280;40551;50.478;19.378;2023-07-29T08:09:46;97477.11;;;25.06;71.36
53526;BME280;40551;50.478;19.378;2023-07-29T08:12:19;97475.14;;;25.03;69.69
53526;BME280;40551;50.478;19.378;2023-07-29T08:14:54;97470.88;;;24.80;69.45
53526;BME280;40551;50.478;19.378;2023-07-29T08:17:28;97475.52;;;24.60;69.69
53526;BME280;40551;50.478;19.378;2023-07-29T08:20:03;97478.18;;;24.51;70.55
53526;BME280;40551;50.478;19.378;2023-07-29T08:22:37;97476.41;;;24.40;70.19
53526;BME280;40551;50.478;19.378;2023-07-29T08:25:12;97475.08;;;24.36;69.74
53526;BME280;40551;50.478;19.378;2023-07-29T08:27:45;97471.02;;;24.40;69.94
53526;BME280;40551;50.478;19.378;2023-07-29T08:30:19;97469.10;;;24.46;70.34
53526;BME280;40551;50.478;19.378;2023-07-29T08:32:53;97469.40;;;24.53;69.54
53526;BME280;40551;50.478;19.378;2023-07-29T08:35:27;97466.64;;;24.63;69.51
53526;BME280;40551;50.478;19.378;2023-07-29T08:38:04;97465.29;;;24.75;69.80
53526;BME280;40551;50.478;19.378;2023-07-29T08:40:45;97461.69;;;24.87;70.06
53526;BME280;40551;50.478;19.378;2023-07-29T08:43:29;97457.79;;;24.95;68.55
53526;BME280;40551;50.478;19.378;2023-07-29T08:46:04;97454.18;;;25.01;68.31
53526;BME280;40551;50.478;19.378;2023-07-29T08:48:42;97453.25;;;25.13;68.29
53526;BME280;40551;50.478;19.378;2023-07-29T08:51:17;97457.11;;;25.22;67.59
53526;BME280;40551;50.478;19.378;2023-07-29T08:53:51;97455.77;;;25.35;67.93
53526;BME280;40551;50.478;19.378;2023-07-29T08:56:24;97451.84;;;25.41;67.10
53526;BME280;40551;50.478;19.378;2023-07-29T08:58:59;97452.73;;;25.53;66.75
53526;BME280;40551;50.478;19.378;2023-07-29T09:01:33;97452.16;;;25.60;66.28
53526;BME280;40551;50.478;19.378;2023-07-29T09:04:07;97447.16;;;25.67;66.06
53526;BME280;40551;50.478;19.378;2023-07-29T09:06:41;97443.92;;;25.72;65.82
53526;BME280;40551;50.478;19.378;2023-07-29T09:09:15;97443.11;;;25.81;65.19
53526;BME280;40551;50.478;19.378;2023-07-29T09:11:49;97436.20;;;25.90;63.76
53526;BME280;40551;50.478;19.378;2023-07-29T09:14:24;97440.19;;;25.97;62.86
53526;BME280;40551;50.478;19.378;2023-07-29T09:16:57;97439.04;;;25.99;62.25
53526;BME280;40551;50.478;19.378;2023-07-29T09:19:34;97439.27;;;26.04;63.13
53526;BME280;40551;50.478;19.378;2023-07-29T09:22:18;97434.38;;;26.05;62.33
53526;BME280;40551;50.478;19.378;2023-07-29T09:24:53;97427.59;;;26.11;62.00
53526;BME280;40551;50.478;19.378;2023-07-29T09:27:28;97426.66;;;26.18;62.17
53526;BME280;40551;50.478;19.378;2023-07-29T09:30:06;97421.38;;;26.21;62.48
53526;BME280;40551;50.478;19.378;2023-07-29T09:32:41;97420.65;;;26.22;62.07
53526;BME280;40551;50.478;19.378;2023-07-29T09:35:17;97420.40;;;26.27;62.56
53526;BME280;40551;50.478;19.378;2023-07-29T09:37:52;97417.59;;;26.28;62.39
53526;BME280;40551;50.478;19.378;2023-07-29T09:40:26;97416.39;;;26.32;62.27
53526;BME280;40551;50.478;19.378;2023-07-29T09:42:59;97418.58;;;26.35;62.67
53526;BME280;40551;50.478;19.378;2023-07-29T09:45:35;97410.89;;;26.43;62.50
53526;BME280;40551;50.478;19.378;2023-07-29T09:48:10;97409.68;;;26.48;63.30
53526;BME280;40551;50.478;19.378;2023-07-29T09:50:46;97411.38;;;26.53;62.63
53526;BME280;40551;50.478;19.378;2023-07-29T09:53:20;97411.04;;;26.57;61.95
53526;BME280;40551;50.478;19.378;2023-07-29T09:55:54;97412.42;;;26.61;61.81
53526;BME280;40551;50.478;19.378;2023-07-29T09:58:29;97412.73;;;26.53;60.41
53526;BME280;40551;50.478;19.378;2023-07-29T10:01:04;97416.90;;;26.32;60.57
53526;BME280;40551;50.478;19.378;2023-07-29T10:03:37;97415.02;;;26.07;60.99
53526;BME280;40551;50.478;19.378;2023-07-29T10:06:10;97410.87;;;25.90;61.06
53526;BME280;40551;50.478;19.378;2023-07-29T10:08:45;97409.45;;;25.84;61.71
53526;BME280;40551;50.478;19.378;2023-07-29T10:11:23;97401.95;;;25.89;61.30
53526;BME280;40551;50.478;19.378;2023-07-29T10:13:57;97400.15;;;26.01;62.03
53526;BME280;40551;50.478;19.378;2023-07-29T10:16:40;97399.52;;;26.10;61.58
53526;BME280;40551;50.478;19.378;2023-07-29T10:19:18;97397.50;;;26.18;60.62
53526;BME280;40551;50.478;19.378;2023-07-29T10:21:53;97390.61;;;26.25;60.27
53526;BME280;40551;50.478;19.378;2023-07-29T10:24:31;97394.23;;;26.42;60.87
53526;BME280;40551;50.478;19.378;2023-07-29T10:27:05;97394.02;;;26.54;60.74
53526;BME280;40551;50.478;19.378;2023-07-29T10:29:44;97395.38;;;26.64;60.60
53526;BME280;40551;50.478;19.378;2023-07-29T10:32:23;97394.13;;;26.58;58.84
53526;BME280;40551;50.478;19.378;2023-07-29T10:34:59;97394.86;;;26.50;58.92
53526;BME280;40551;50.478;19.378;2023-07-29T10:37:33;97393.96;;;26.42;58.24
53526;BME280;40551;50.478;19.378;2023-07-29T10:40:11;97390.98;;;26.33;58.42
53526;BME280;40551;50.478;19.378;2023-07-29T10:43:01;97387.59;;;26.35;57.74
53526;BME280;40551;50.478;19.378;2023-07-29T10:45:42;97382.82;;;26.42;56.68
53526;BME280;40551;50.478;19.378;2023-07-29T10:48:41;97383.19;;;26.54;57.53
53526;BME280;40551;50.478;19.378;2023-07-29T10:51:25;97385.67;;;26.71;58.33
53526;BME280;40551;50.478;19.378;2023-07-29T10:54:03;97382.38;;;26.72;57.21
53526;BME280;40551;50.478;19.378;2023-07-29T10:56:39;97382.36;;;26.78;57.21
53526;BME280;40551;50.478;19.378;2023-07-29T10:59:34;97385.77;;;26.89;57.87
53526;BME280;40551;50.478;19.378;2023-07-29T11:02:17;97383.38;;;26.96;57.84
53526;BME280;40551;50.478;19.378;2023-07-29T11:04:51;97383.98;;;26.97;57.13
53526;BME280;40551;50.478;19.378;2023-07-29T11:07:28;97380.65;;;26.90;56.03
53526;BME280;40551;50.478;19.378;2023-07-29T11:10:06;97380.63;;;26.89;56.34
53526;BME280;40551;50.478;19.378;2023-07-29T11:12:51;97374.73;;;26.84;55.51
53526;BME280;40551;50.478;19.378;2023-07-29T11:15:27;97372.05;;;26.89;56.51
53526;BME280;40551;50.478;19.378;2023-07-29T11:18:01;97369.52;;;26.98;55.68
53526;BME280;40551;50.478;19.378;2023-07-29T11:20:34;97370.72;;;27.06;56.20
53526;BME280;40551;50.478;19.378;2023-07-29T11:23:11;97366.02;;;27.20;55.87
53526;BME280;40551;50.478;19.378;2023-07-29T11:25:46;97370.42;;;27.25;55.02
53526;BME280;40551;50.478;19.378;2023-07-29T11:28:19;97365.77;;;27.35;55.01
53526;BME280;40551;50.478;19.378;2023-07-29T11:30:53;97370.19;;;27.34;54.79
53526;BME280;40551;50.478;19.378;2023-07-29T11:33:27;97362.91;;;27.26;55.91
53526;BME280;40551;50.478;19.378;2023-07-29T11:36:02;97361.44;;;27.29;55.23
53526;BME280;40551;50.478;19.378;2023-07-29T11:38:35;97353.56;;;27.39;55.08
53526;BME280;40551;50.478;19.378;2023-07-29T11:41:09;97349.27;;;27.51;54.54
53526;BME280;40551;50.478;19.378;2023-07-29T11:43:42;97341.52;;;27.60;54.48
53526;BME280;40551;50.478;19.378;2023-07-29T11:46:16;97341.80;;;27.70;55.37
53526;BME280;40551;50.478;19.378;2023-07-29T11:48:55;97338.10;;;27.82;55.93
53526;BME280;40551;50.478;19.378;2023-07-29T11:51:28;97340.71;;;27.88;54.77
53526;BME280;40551;50.478;19.378;2023-07-29T11:54:01;97337.67;;;27.91;54.87
53526;BME280;40551;50.478;19.378;2023-07-29T11:56:34;97333.33;;;27.97;54.79
53526;BME280;40551;50.478;19.378;2023-07-29T11:59:08;97336.19;;;27.94;54.04
53526;BME280;40551;50.478;19.378;2023-07-29T12:01:42;97332.52;;;27.86;53.83
53526;BME280;40551;50.478;19.378;2023-07-29T12:04:15;97330.05;;;27.88;53.64
53526;BME280;40551;50.478;19.378;2023-07-29T12:06:49;97328.36;;;27.92;53.06
53526;BME280;40551;50.478;19.378;2023-07-29T12:09:23;97330.98;;;28.00;53.23
53526;BME280;40551;50.478;19.378;2023-07-29T12:11:59;97323.24;;;28.04;52.36
53526;BME280;40551;50.478;19.378;2023-07-29T12:14:32;97323.00;;;28.00;51.83
53526;BME280;40551;50.478;19.378;2023-07-29T12:17:07;97325.09;;;27.88;52.82
53526;BME280;40551;50.478;19.378;2023-07-29T12:19:43;97324.25;;;27.75;52.73
53526;BME280;40551;50.478;19.378;2023-07-29T12:22:19;97324.15;;;27.59;52.46
53526;BME280;40551;50.478;19.378;2023-07-29T12:24:52;97324.71;;;27.49;52.74
53526;BME280;40551;50.478;19.378;2023-07-29T12:27:25;97323.34;;;27.50;52.81
53526;BME280;40551;50.478;19.378;2023-07-29T12:29:58;97318.70;;;27.52;54.10
53526;BME280;40551;50.478;19.378;2023-07-29T12:32:40;97314.37;;;27.60;54.64
53526;BME280;40551;50.478;19.378;2023-07-29T12:35:16;97315.23;;;27.68;55.68
53526;BME280;40551;50.478;19.378;2023-07-29T12:37:59;97313.77;;;27.59;54.48
53526;BME280;40551;50.478;19.378;2023-07-29T12:40:32;97313.63;;;27.58;54.38
53526;BME280;40551;50.478;19.378;2023-07-29T12:43:06;97308.07;;;27.61;54.84
53526;BME280;40551;50.478;19.378;2023-07-29T12:45:40;97304.98;;;27.72;54.57
53526;BME280;40551;50.478;19.378;2023-07-29T12:48:15;97304.16;;;27.84;54.68
53526;BME280;40551;50.478;19.378;2023-07-29T12:50:47;97301.04;;;27.91;54.88
53526;BME280;40551;50.478;19.378;2023-07-29T12:53:20;97300.06;;;27.87;54.40
53526;BME280;40551;50.478;19.378;2023-07-29T12:55:54;97299.73;;;27.78;54.62
53526;BME280;40551;50.478;19.378;2023-07-29T12:58:27;97296.74;;;27.72;53.86
53526;BME280;40551;50.478;19.378;2023-07-29T13:01:01;97289.81;;;27.77;54.05
53526;BME280;40551;50.478;19.378;2023-07-29T13:03:35;97284.85;;;27.82;53.43
53526;BME280;40551;50.478;19.378;2023-07-29T13:06:10;97288.36;;;27.80;52.87
53526;BME280;40551;50.478;19.378;2023-07-29T13:08:43;97290.81;;;27.80;53.10
53526;BME280;40551;50.478;19.378;2023-07-29T13:11:16;97292.05;;;27.74;52.85
53526;BME280;40551;50.478;19.378;2023-07-29T13:13:50;97286.86;;;27.63;52.94
53526;BME280;40551;50.478;19.378;2023-07-29T13:16:25;97282.55;;;27.56;52.79
53526;BME280;40551;50.478;19.378;2023-07-29T13:18:58;97279.81;;;27.54;53.48
53526;BME280;40551;50.478;19.378;2023-07-29T13:21:31;97278.13;;;27.51;54.33
53526;BME280;40551;50.478;19.378;2023-07-29T13:24:04;97275.84;;;27.59;53.75
53526;BME280;40551;50.478;19.378;2023-07-29T13:26:37;97274.70;;;27.68;53.28
53526;BME280;40551;50.478;19.378;2023-07-29T13:29:10;97270.20;;;27.77;53.48
53526;BME280;40551;50.478;19.378;2023-07-29T13:31:44;97264.27;;;27.85;52.97